Blacksburg, VA

10:06 AM EST on December 11, 2016 (GMT -0500)
near Laurel Ridge | | Change Station

Elev 2120 ft 37.26 °N, 80.45 °W | Updated 1 minute ago

Mostly Cloudy
Mostly Cloudy
31.9 °F
Feels Like 32 °F
N
0.0
Wind Variable Wind from SSE
Gusts 1.0 mph

Today
High -- | Low -- °F
--% Chance of Precip.
Yesterday
High -- | Low -- °F
Precip. -- in
Pressure 30.42 in
Visibility 10.0 miles
Clouds Clear
Windchill 32 °F
Dew Point 20 °F
Humidity 60%
Rainfall 0.00 in
Snow Depth Not available.
7:25 AM 5:04 PM
Waxing Gibbous, 92% visible
METAR KBCB 111455Z AUTO 11007KT 10SM CLR 00/M08 A3042 RMK AO2 T10041083
Pressure 30.42 in
Visibility 10.0 miles
Clouds Clear
Windchill 32 °F
Dew Point 20 °F
Humidity 60%
Rainfall 0.00 in
Snow Depth Not available.
7:25 AM 5:04 PM
Waxing Gibbous, 92% visible
METAR KBCB 111455Z AUTO 11007KT 10SM CLR 00/M08 A3042 RMK AO2 T10041083

10-Day Weather Forecast

Almanac

Astronomy

Dec. 11, 2016 Rise Set
Actual Time
Civil Twilight
Nautical Twilight
Astronomical Twilight
Moon
Length of Visible Light
Length of Day
Tomorrow will be .
, % of the Moon is Illuminated

Today's Extremes

State Highs State Lows

Community

WunderPhotos

Upload Photos

1,956,721 photos uploaded!

WunderBlog® & News

Nearby

Air Quality

  Air Quality AQ Index Pollutant
Not available.

Snow Depth

Station Depth Elevation

Earthquake Activity

City Distance Mag. Time & Date
Minimum magnitude displayed is 2.5.

Coastal Water Temperatures

Place Temperature

Stations

Nearby Weather Stations

Station Location Temp. Windchill Dew Point Humidity Wind Precip. Elev Updated Type
                   

Watches & Warnings

There are currently no watches in effect.